Mount Croghan, SC (29727)

3:53 PM EST on November 25, 2014 (GMT -0500)
Ruby-Mt.Croghan | Change Station
CLOSE
Current Station
Personal Weather Station
Location: Ruby, SC
Elevation: 391 ft
Nearby Weather Stations

Elev 391 ft 34.75 °N, 80.19 °W | Updated 21 seconds ago

Partly Cloudy
Partly Cloudy
59.0 °F
Feels Like 59.0 °F
N
0.0
Wind Variable Wind from WSW
Gusts 13.0 mph

Today
High -- | Low -- °F
--% Chance of Precip.
Yesterday
High -- | Low -- °F
Precip. -- in
7:04 AM 5:11 PM
Waxing Crescent, 14% visible
Pressure 30.01 in
Visibility 4.0 miles
Clouds Scattered Clouds 1900 ft
Scattered Clouds 2800 ft
Dew Point 53 °F
Humidity 80%
Rainfall 0.02 in
Snow Depth Not available.
UV 1 out of 12
Pollen 1.60 out of 12
Air Quality Not available.
Flu Activity Not available.
METAR KCQW 252035Z AUTO 16003KT 4SM BR SCT019 SCT028 17/17 A3001 RMK AO2

More Conditions Fewer Conditions

Pressure 30.01 in
Visibility 4.0 miles
Clouds Scattered Clouds 1900 ft
Scattered Clouds 2800 ft
Dew Point 53 °F
Humidity 80%
Rainfall 0.02 in
Snow Depth Not available.
UV 1 out of 12
Pollen 1.60 out of 12
Air Quality Not available.
Flu Activity Not available.
METAR KCQW 252035Z AUTO 16003KT 4SM BR SCT019 SCT028 17/17 A3001 RMK AO2

More Conditions Fewer Conditions

10-Day Weather Forecast

Almanac

Astronomy

Nov. 25, 2014 Rise Set
Actual Time
Civil Twilight
Nautical Twilight
Astronomical Twilight
Moon
Length of Visible Light
Length of Day
Tomorrow will be .
, % of the Moon is Illuminated

Today's Extremes

State Highs State Lows

Community

WunderPhotos

Upload Photos

1,773,585 photos uploaded!

WunderBlogs® & News

Nearby

Air Quality

  Air Quality AQ Index Pollutant
Not available.

Snow Depth

Station Depth Elevation

Earthquake Activity

City Distance Mag. Time & Date
Minimum magnitude displayed is 2.5.

Coastal Water Temperatures

Place Temperature

Nearby Weather Stations